Time,TemperatureF,DewpointF,PressureIn,WindDirection,WindDirectionDegrees,WindSpeedMPH,WindSpeedGustMPH,Humidity,HourlyPrecipIn,Conditions,Clouds,dailyrainin,SoftwareType,DateUTC
2013-10-14 00:02:00,41.5,36.7,30.40,NNE,13,0.0,0.0,83,0.00,,,0.00,meteohub,2013-10-14 05:02:00,
2013-10-14 00:07:00,41.4,36.5,30.39,NNE,13,0.0,0.0,83,0.00,,,0.00,meteohub,2013-10-14 05:07:00,
2013-10-14 00:12:00,41.4,36.5,30.39,NNE,14,0.0,0.0,83,0.00,,,0.00,meteohub,2013-10-14 05:12:00,
2013-10-14 00:17:00,41.2,36.7,30.39,NNE,14,0.0,0.0,84,0.00,,,0.00,meteohub,2013-10-14 05:17:00,
2013-10-14 00:22:00,41.2,36.7,30.39,NNE,13,0.0,0.0,84,0.00,,,0.00,meteohub,2013-10-14 05:22:00,
2013-10-14 00:27:00,41.2,36.7,30.39,NNE,14,0.0,0.0,84,0.00,,,0.00,meteohub,2013-10-14 05:27:00,
2013-10-14 00:32:00,41.0,36.5,30.39,NNE,14,0.0,0.0,84,0.00,,,0.00,meteohub,2013-10-14 05:32:00,
2013-10-14 00:37:00,40.8,36.3,30.40,NNE,13,0.0,0.0,84,0.00,,,0.00,meteohub,2013-10-14 05:37:00,
2013-10-14 00:42:00,40.8,36.3,30.40,NNE,13,0.0,0.0,84,0.00,,,0.00,meteohub,2013-10-14 05:42:00,
2013-10-14 00:47:00,40.6,36.1,30.40,NNE,13,0.0,0.0,84,0.00,,,0.00,meteohub,2013-10-14 05:47:00,
2013-10-14 00:52:00,40.6,36.5,30.40,NNE,13,0.0,0.0,85,0.00,,,0.00,meteohub,2013-10-14 05:52:00,
2013-10-14 00:57:00,40.6,36.5,30.40,NNE,13,0.0,0.0,85,0.00,,,0.00,meteohub,2013-10-14 05:57:00,
2013-10-14 01:02:00,40.6,36.5,30.40,NNE,14,0.0,0.0,85,0.00,,,0.00,meteohub,2013-10-14 06:02:00,
2013-10-14 01:07:00,40.5,36.3,30.40,NNE,13,0.0,0.0,85,0.00,,,0.00,meteohub,2013-10-14 06:07:00,
2013-10-14 01:12:00,40.5,36.3,30.40,NNE,13,0.0,0.0,85,0.00,,,0.00,meteohub,2013-10-14 06:12:00,
2013-10-14 01:17:00,40.5,36.3,30.40,NNE,13,0.0,0.0,85,0.00,,,0.00,meteohub,2013-10-14 06:17:00,
2013-10-14 01:22:00,40.5,36.3,30.40,NNE,13,0.0,0.0,85,0.00,,,0.00,meteohub,2013-10-14 06:22:00,
2013-10-14 01:27:00,40.3,36.1,30.40,NNE,13,0.0,0.0,85,0.00,,,0.00,meteohub,2013-10-14 06:27:00,
2013-10-14 01:32:00,40.3,36.5,30.40,NNE,13,0.0,0.0,86,0.00,,,0.00,meteohub,2013-10-14 06:32:00,
2013-10-14 01:37:00,40.1,36.3,30.40,NNE,13,0.0,0.0,86,0.00,,,0.00,meteohub,2013-10-14 06:37:00,
2013-10-14 01:42:00,40.1,36.3,30.40,NNE,13,0.0,0.0,86,0.00,,,0.00,meteohub,2013-10-14 06:42:00,
2013-10-14 01:47:00,39.9,36.1,30.40,NNE,13,0.0,0.0,86,0.00,,,0.00,meteohub,2013-10-14 06:47:00,
2013-10-14 01:52:00,39.9,36.1,30.40,NNE,13,0.0,0.0,86,0.00,,,0.00,meteohub,2013-10-14 06:52:00,
2013-10-14 01:57:00,39.7,36.0,30.40,NNE,13,0.0,0.0,86,0.00,,,0.00,meteohub,2013-10-14 06:57:00,
2013-10-14 02:02:00,39.7,36.0,30.40,NNE,14,0.0,0.0,86,0.00,,,0.00,meteohub,2013-10-14 07:02:00,
2013-10-14 02:07:00,39.7,36.0,30.40,NNE,13,0.0,0.0,86,0.00,,,0.00,meteohub,2013-10-14 07:07:00,
2013-10-14 02:12:00,39.6,35.8,30.40,NNE,14,0.0,0.0,86,0.00,,,0.00,meteohub,2013-10-14 07:12:00,
2013-10-14 02:17:00,39.6,35.8,30.40,NNE,13,0.0,0.0,86,0.00,,,0.00,meteohub,2013-10-14 07:17:00,
2013-10-14 02:22:00,39.6,35.8,30.40,NNE,13,0.0,0.0,86,0.00,,,0.00,meteohub,2013-10-14 07:22:00,
2013-10-14 02:27:00,39.4,35.6,30.39,NNE,13,0.0,0.0,86,0.00,,,0.00,meteohub,2013-10-14 07:27:00,
2013-10-14 02:32:00,39.4,35.6,30.39,NNE,13,0.0,0.0,86,0.00,,,0.00,meteohub,2013-10-14 07:32:00,
2013-10-14 02:37:00,39.4,35.6,30.40,NNE,14,0.0,0.0,86,0.00,,,0.00,meteohub,2013-10-14 07:37:00,
2013-10-14 02:42:00,39.4,35.8,30.40,NNE,13,0.0,0.0,87,0.00,,,0.00,meteohub,2013-10-14 07:42:00,
2013-10-14 02:47:00,39.4,35.8,30.40,NNE,13,0.0,0.0,87,0.00,,,0.00,meteohub,2013-10-14 07:47:00,
2013-10-14 02:52:00,39.2,35.4,30.40,NNE,13,0.0,0.0,86,0.00,,,0.00,meteohub,2013-10-14 07:52:00,
2013-10-14 02:57:00,39.2,35.6,30.40,NNE,13,0.0,0.0,87,0.00,,,0.00,meteohub,2013-10-14 07:57:00,
2013-10-14 03:02:00,39.2,35.6,30.40,NNE,13,0.0,0.0,87,0.00,,,0.00,meteohub,2013-10-14 08:02:00,
2013-10-14 03:07:00,39.0,35.4,30.40,NNE,13,0.0,0.0,87,0.00,,,0.00,meteohub,2013-10-14 08:07:00,
2013-10-14 03:12:00,39.0,35.4,30.40,NNE,13,0.0,0.0,87,0.00,,,0.00,meteohub,2013-10-14 08:12:00,
2013-10-14 03:17:00,39.0,35.4,30.39,NNE,14,0.0,0.0,87,0.00,,,0.00,meteohub,2013-10-14 08:17:00,
2013-10-14 03:22:00,39.0,35.4,30.39,NNE,13,0.0,0.0,87,0.00,,,0.00,meteohub,2013-10-14 08:22:00,
2013-10-14 03:27:00,39.0,35.4,30.39,NNE,14,0.0,0.0,87,0.00,,,0.00,meteohub,2013-10-14 08:27:00,
2013-10-14 03:32:00,39.0,35.4,30.38,NNE,13,0.0,0.0,87,0.00,,,0.00,meteohub,2013-10-14 08:32:00,
2013-10-14 03:37:00,38.8,35.2,30.38,NNE,13,0.0,0.0,87,0.00,,,0.00,meteohub,2013-10-14 08:37:00,
2013-10-14 03:42:00,38.8,35.2,30.38,NNE,14,0.0,0.0,87,0.00,,,0.00,meteohub,2013-10-14 08:42:00,
2013-10-14 03:47:00,38.8,35.2,30.38,NNE,13,0.0,0.0,87,0.00,,,0.00,meteohub,2013-10-14 08:47:00,
2013-10-14 03:52:00,38.8,35.2,30.38,NNE,14,0.0,0.0,87,0.00,,,0.00,meteohub,2013-10-14 08:52:00,
2013-10-14 03:57:00,38.7,35.1,30.38,NNE,13,0.0,0.0,87,0.00,,,0.00,meteohub,2013-10-14 08:57:00,
2013-10-14 04:02:00,38.7,35.1,30.38,NNE,13,0.0,0.0,87,0.00,,,0.00,meteohub,2013-10-14 09:02:00,
2013-10-14 04:07:00,38.7,35.1,30.38,NNE,14,0.0,0.0,87,0.00,,,0.00,meteohub,2013-10-14 09:07:00,
2013-10-14 04:12:00,38.7,35.1,30.38,NNE,13,0.0,0.0,87,0.00,,,0.00,meteohub,2013-10-14 09:12:00,
2013-10-14 04:17:00,38.7,35.4,30.38,NNE,13,0.0,0.0,88,0.00,,,0.00,meteohub,2013-10-14 09:17:00,
2013-10-14 04:22:00,38.7,35.4,30.38,NNE,13,0.0,0.0,88,0.00,,,0.00,meteohub,2013-10-14 09:22:00,
2013-10-14 04:27:00,38.7,35.4,30.37,NNE,13,0.0,0.0,88,0.00,,,0.00,meteohub,2013-10-14 09:27:00,
2013-10-14 04:32:00,38.7,35.4,30.37,NNE,13,0.0,0.0,88,0.00,,,0.00,meteohub,2013-10-14 09:32:00,
2013-10-14 04:37:00,38.7,35.4,30.38,NNE,13,0.0,0.0,88,0.00,,,0.00,meteohub,2013-10-14 09:37:00,
2013-10-14 04:42:00,38.7,35.4,30.38,NNE,13,0.0,0.0,88,0.00,,,0.00,meteohub,2013-10-14 09:42:00,
2013-10-14 04:47:00,38.8,35.6,30.38,NNE,13,0.0,0.0,88,0.00,,,0.00,meteohub,2013-10-14 09:47:00,
2013-10-14 04:52:00,38.8,35.6,30.38,NNE,13,0.0,0.0,88,0.00,,,0.00,meteohub,2013-10-14 09:52:00,
2013-10-14 04:57:00,39.0,35.8,30.38,NNE,13,0.0,0.0,88,0.00,,,0.00,meteohub,2013-10-14 09:57:00,
2013-10-14 05:02:00,39.0,35.8,30.38,NNE,14,0.0,0.0,88,0.00,,,0.00,meteohub,2013-10-14 10:02:00,
2013-10-14 05:07:00,39.2,36.0,30.37,NNE,13,0.0,0.0,88,0.00,,,0.00,meteohub,2013-10-14 10:07:00,
2013-10-14 05:12:00,39.4,36.1,30.37,NNE,13,0.0,0.0,88,0.00,,,0.00,meteohub,2013-10-14 10:12:00,
2013-10-14 05:17:00,39.4,36.1,30.37,NNE,13,0.0,0.0,88,0.00,,,0.00,meteohub,2013-10-14 10:17:00,
2013-10-14 05:22:00,39.4,36.1,30.38,NNE,13,0.0,0.0,88,0.00,,,0.00,meteohub,2013-10-14 10:22:00,
2013-10-14 05:27:00,39.6,36.5,30.37,NNE,13,0.0,0.0,89,0.00,,,0.00,meteohub,2013-10-14 10:27:00,
2013-10-14 05:32:00,39.6,36.5,30.37,NNE,13,0.0,0.0,89,0.00,,,0.00,meteohub,2013-10-14 10:32:00,
2013-10-14 05:37:00,39.7,36.7,30.37,NNE,14,0.0,0.0,89,0.00,,,0.00,meteohub,2013-10-14 10:37:00,
2013-10-14 05:42:00,39.7,36.7,30.36,NNE,13,0.0,0.0,89,0.00,,,0.00,meteohub,2013-10-14 10:42:00,
2013-10-14 05:47:00,39.9,36.9,30.36,NNE,14,0.0,0.0,89,0.00,,,0.00,meteohub,2013-10-14 10:47:00,
2013-10-14 05:52:00,39.9,36.9,30.36,NNE,13,0.0,0.0,89,0.00,,,0.00,meteohub,2013-10-14 10:52:00,
2013-10-14 05:57:00,39.9,36.9,30.37,NNE,13,0.0,0.0,89,0.00,,,0.00,meteohub,2013-10-14 10:57:00,
2013-10-14 06:02:00,40.1,37.0,30.36,NNE,13,0.0,0.0,89,0.00,,,0.00,meteohub,2013-10-14 11:02:00,
2013-10-14 06:07:00,40.1,37.0,30.36,NNE,13,0.0,0.0,89,0.00,,,0.00,meteohub,2013-10-14 11:07:00,
2013-10-14 06:12:00,40.3,37.2,30.36,NNE,13,0.0,0.0,89,0.00,,,0.00,meteohub,2013-10-14 11:12:00,
2013-10-14 06:17:00,40.3,37.2,30.35,NNE,13,0.0,0.0,89,0.00,,,0.00,meteohub,2013-10-14 11:17:00,
2013-10-14 06:22:00,40.5,37.4,30.35,NNE,13,0.0,0.0,89,0.00,,,0.00,meteohub,2013-10-14 11:22:00,
2013-10-14 06:27:00,40.6,37.6,30.35,NNE,13,0.0,0.0,89,0.00,,,0.00,meteohub,2013-10-14 11:27:00,
2013-10-14 06:32:00,40.8,37.8,30.35,NNE,13,0.0,0.0,89,0.00,,,0.00,meteohub,2013-10-14 11:32:00,
2013-10-14 06:37:00,41.0,37.9,30.34,NNE,14,0.0,0.0,89,0.00,,,0.00,meteohub,2013-10-14 11:37:00,
2013-10-14 06:42:00,41.2,38.1,30.34,NNE,13,0.0,2.0,89,0.00,,,0.00,meteohub,2013-10-14 11:42:00,
2013-10-14 06:47:00,41.5,38.5,30.34,NNE,14,0.0,2.0,89,0.00,,,0.00,meteohub,2013-10-14 11:47:00,
2013-10-14 06:52:00,41.7,38.7,30.34,NNE,13,0.0,1.0,89,0.00,,,0.00,meteohub,2013-10-14 11:52:00,
2013-10-14 06:57:00,42.1,39.0,30.34,NNE,13,0.0,0.0,89,0.00,,,0.00,meteohub,2013-10-14 11:57:00,
2013-10-14 07:02:00,42.3,39.2,30.35,NNE,14,0.0,0.0,89,0.00,,,0.00,meteohub,2013-10-14 12:02:00,
2013-10-14 07:07:00,42.6,39.6,30.35,NE,44,0.0,2.0,89,0.00,,,0.00,meteohub,2013-10-14 12:07:00,
2013-10-14 07:12:00,42.8,39.7,30.35,NE,43,0.0,2.0,89,0.00,,,0.00,meteohub,2013-10-14 12:12:00,
2013-10-14 07:17:00,43.0,39.9,30.35,NE,40,0.0,2.0,89,0.00,,,0.00,meteohub,2013-10-14 12:17:00,
2013-10-14 07:22:00,43.2,40.1,30.35,NE,40,0.0,0.0,89,0.00,,,0.00,meteohub,2013-10-14 12:22:00,
2013-10-14 07:27:00,43.3,40.1,30.35,NE,40,0.0,0.0,88,0.00,,,0.00,meteohub,2013-10-14 12:27:00,
2013-10-14 07:32:00,43.5,40.3,30.35,NE,40,0.0,1.0,88,0.00,,,0.00,meteohub,2013-10-14 12:32:00,
2013-10-14 07:37:00,43.7,40.5,30.35,NE,42,0.0,1.0,88,0.00,,,0.00,meteohub,2013-10-14 12:37:00,
2013-10-14 07:42:00,43.9,40.6,30.35,NE,42,0.0,2.0,88,0.00,,,0.00,meteohub,2013-10-14 12:42:00,
2013-10-14 07:47:00,44.1,40.8,30.35,NE,42,0.0,2.0,88,0.00,,,0.00,meteohub,2013-10-14 12:47:00,
2013-10-14 07:52:00,44.1,40.8,30.35,NE,42,0.0,2.0,88,0.00,,,0.00,meteohub,2013-10-14 12:52:00,
2013-10-14 07:57:00,44.2,40.6,30.35,NE,42,0.0,0.0,87,0.00,,,0.00,meteohub,2013-10-14 12:57:00,
2013-10-14 08:02:00,44.2,40.6,30.35,NE,42,0.0,0.0,87,0.00,,,0.00,meteohub,2013-10-14 13:02:00,
2013-10-14 08:07:00,44.4,40.8,30.35,NE,42,0.0,0.0,87,0.00,,,0.00,meteohub,2013-10-14 13:07:00,
2013-10-14 08:12:00,44.4,40.8,30.35,NE,42,0.0,0.0,87,0.00,,,0.00,meteohub,2013-10-14 13:12:00,
2013-10-14 08:17:00,44.6,41.0,30.35,NE,42,0.0,0.0,87,0.00,,,0.00,meteohub,2013-10-14 13:17:00,
2013-10-14 08:22:00,44.6,40.6,30.35,NE,42,0.0,0.0,86,0.00,,,0.00,meteohub,2013-10-14 13:22:00,
2013-10-14 08:27:00,44.8,40.8,30.35,NE,42,0.0,0.0,86,0.00,,,0.00,meteohub,2013-10-14 13:27:00,
2013-10-14 08:32:00,44.8,40.8,30.35,NE,42,0.0,0.0,86,0.00,,,0.00,meteohub,2013-10-14 13:32:00,
2013-10-14 08:37:00,45.0,41.0,30.35,NE,42,0.0,0.0,86,0.00,,,0.00,meteohub,2013-10-14 13:37:00,
2013-10-14 08:42:00,45.0,40.6,30.34,NE,40,0.0,0.0,85,0.00,,,0.00,meteohub,2013-10-14 13:42:00,
2013-10-14 08:47:00,45.0,40.6,30.35,SSW,192,0.0,1.0,85,0.00,,,0.00,meteohub,2013-10-14 13:47:00,
2013-10-14 08:52:00,45.1,40.8,30.35,SSW,192,0.0,4.0,85,0.00,,,0.00,meteohub,2013-10-14 13:52:00,
2013-10-14 08:57:00,45.1,40.8,30.35,SSW,192,0.0,4.0,85,0.00,,,0.00,meteohub,2013-10-14 13:57:00,
2013-10-14 09:02:00,45.3,41.0,30.35,South,188,0.0,0.0,85,0.00,,,0.00,meteohub,2013-10-14 14:02:00,
2013-10-14 09:07:00,45.3,40.8,30.35,South,188,0.0,3.0,84,0.00,,,0.00,meteohub,2013-10-14 14:07:00,
2013-10-14 09:12:00,45.3,40.8,30.35,South,188,0.0,3.0,84,0.00,,,0.00,meteohub,2013-10-14 14:12:00,
2013-10-14 09:17:00,45.5,40.6,30.35,South,188,0.0,3.0,83,0.00,,,0.00,meteohub,2013-10-14 14:17:00,
2013-10-14 09:22:00,45.7,40.8,30.36,South,188,0.0,2.0,83,0.00,,,0.00,meteohub,2013-10-14 14:22:00,
2013-10-14 09:27:00,45.7,40.8,30.37,South,188,0.0,0.0,83,0.00,,,0.00,meteohub,2013-10-14 14:27:00,
2013-10-14 09:32:00,45.9,41.0,30.37,South,188,0.0,0.0,83,0.00,,,0.00,meteohub,2013-10-14 14:32:00,
2013-10-14 09:37:00,46.0,41.2,30.37,South,188,0.0,0.0,83,0.00,,,0.00,meteohub,2013-10-14 14:37:00,
2013-10-14 09:42:00,46.0,40.8,30.38,South,188,0.0,0.0,82,0.00,,,0.00,meteohub,2013-10-14 14:42:00,
2013-10-14 09:47:00,46.2,41.0,30.38,South,188,0.0,0.0,82,0.00,,,0.00,meteohub,2013-10-14 14:47:00,
2013-10-14 09:52:00,46.2,41.0,30.38,South,188,0.0,1.0,82,0.00,,,0.00,meteohub,2013-10-14 14:52:00,
2013-10-14 09:57:00,46.4,40.8,30.37,South,188,0.0,1.0,81,0.00,,,0.00,meteohub,2013-10-14 14:57:00,
2013-10-14 10:02:00,46.6,41.0,30.37,South,188,0.0,1.0,81,0.00,,,0.00,meteohub,2013-10-14 15:02:00,
2013-10-14 10:07:00,46.6,41.0,30.37,SW,236,0.0,0.0,81,0.00,,,0.00,meteohub,2013-10-14 15:07:00,
2013-10-14 10:12:00,46.8,41.0,30.37,SW,236,0.0,0.0,80,0.00,,,0.00,meteohub,2013-10-14 15:12:00,
2013-10-14 10:17:00,46.8,41.0,30.36,SSW,207,0.0,2.0,80,0.00,,,0.00,meteohub,2013-10-14 15:17:00,
2013-10-14 10:22:00,46.9,41.2,30.36,SSW,207,0.0,2.0,80,0.00,,,0.00,meteohub,2013-10-14 15:22:00,
2013-10-14 10:27:00,47.1,41.4,30.35,SSW,207,0.0,2.0,80,0.00,,,0.00,meteohub,2013-10-14 15:27:00,
2013-10-14 10:32:00,47.3,41.2,30.35,SSW,208,0.0,0.0,79,0.00,,,0.00,meteohub,2013-10-14 15:32:00,
2013-10-14 10:37:00,47.5,41.4,30.34,SSW,208,0.0,0.0,79,0.00,,,0.00,meteohub,2013-10-14 15:37:00,
2013-10-14 10:42:00,47.7,41.5,30.34,SSW,207,0.0,0.0,79,0.00,,,0.00,meteohub,2013-10-14 15:42:00,
2013-10-14 10:47:00,47.8,41.4,30.34,SE,143,0.0,0.0,78,0.00,,,0.00,meteohub,2013-10-14 15:47:00,
2013-10-14 10:52:00,48.0,41.2,30.34,SE,144,0.0,4.0,77,0.00,,,0.00,meteohub,2013-10-14 15:52:00,
2013-10-14 10:57:00,48.4,41.5,30.34,SE,144,0.0,4.0,77,0.00,,,0.00,meteohub,2013-10-14 15:57:00,
2013-10-14 11:02:00,48.6,41.4,30.33,SE,144,0.0,4.0,76,0.00,,,0.00,meteohub,2013-10-14 16:02:00,
2013-10-14 11:07:00,48.7,41.5,30.33,SE,144,0.0,0.0,76,0.00,,,0.00,meteohub,2013-10-14 16:07:00,
2013-10-14 11:12:00,49.1,41.5,30.32,SE,144,0.0,0.0,75,0.00,,,0.00,meteohub,2013-10-14 16:12:00,
2013-10-14 11:17:00,49.5,41.5,30.32,South,175,0.0,0.0,74,0.00,,,0.00,meteohub,2013-10-14 16:17:00,
2013-10-14 11:22:00,49.6,41.4,30.31,SSE,162,2.0,3.0,73,0.00,,,0.00,meteohub,2013-10-14 16:22:00,
2013-10-14 11:27:00,49.8,41.2,30.31,SSE,161,0.0,5.0,72,0.00,,,0.00,meteohub,2013-10-14 16:27:00,
2013-10-14 11:32:00,50.0,41.4,30.30,SSE,162,0.0,5.0,72,0.00,,,0.00,meteohub,2013-10-14 16:32:00,
2013-10-14 11:37:00,50.2,41.5,30.30,SSE,161,0.0,5.0,72,0.00,,,0.00,meteohub,2013-10-14 16:37:00,
2013-10-14 11:42:00,50.4,41.4,30.30,SSE,153,0.0,5.0,71,0.00,,,0.00,meteohub,2013-10-14 16:42:00,
2013-10-14 11:47:00,50.4,41.4,30.29,SSE,153,0.0,5.0,71,0.00,,,0.00,meteohub,2013-10-14 16:47:00,
2013-10-14 11:52:00,50.5,41.2,30.28,SSE,153,1.0,5.0,70,0.00,,,0.00,meteohub,2013-10-14 16:52:00,
2013-10-14 11:57:00,50.7,41.4,30.28,SSE,153,0.0,4.0,70,0.00,,,0.00,meteohub,2013-10-14 16:57:00,
2013-10-14 12:02:00,51.1,41.7,30.28,SSE,153,0.0,4.0,70,0.00,,,0.00,meteohub,2013-10-14 17:02:00,
2013-10-14 12:07:00,51.3,41.9,30.28,SSE,153,0.0,5.0,70,0.00,,,0.00,meteohub,2013-10-14 17:07:00,
2013-10-14 12:12:00,51.3,41.4,30.28,SSW,194,1.0,5.0,69,0.00,,,0.00,meteohub,2013-10-14 17:12:00,
2013-10-14 12:17:00,51.4,41.5,30.27,SSW,194,0.0,5.0,69,0.00,,,0.00,meteohub,2013-10-14 17:17:00,
2013-10-14 12:22:00,51.8,41.9,30.27,SSW,192,0.0,4.0,69,0.00,,,0.00,meteohub,2013-10-14 17:22:00,
2013-10-14 12:27:00,52.0,42.1,30.27,South,191,0.0,4.0,69,0.00,,,0.00,meteohub,2013-10-14 17:27:00,
2013-10-14 12:32:00,52.2,42.3,30.26,SSE,159,0.0,6.0,69,0.00,,,0.00,meteohub,2013-10-14 17:32:00,
2013-10-14 12:37:00,52.3,42.4,30.26,SSE,159,0.0,6.0,69,0.00,,,0.00,meteohub,2013-10-14 17:37:00,
2013-10-14 12:42:00,52.3,42.4,30.26,SSE,160,1.0,6.0,69,0.00,,,0.00,meteohub,2013-10-14 17:42:00,
2013-10-14 12:47:00,52.5,42.6,30.25,SW,223,0.0,4.0,69,0.00,,,0.00,meteohub,2013-10-14 17:47:00,
2013-10-14 12:52:00,52.7,42.8,30.25,South,191,0.0,4.0,69,0.00,,,0.00,meteohub,2013-10-14 17:52:00,
2013-10-14 12:57:00,53.1,43.2,30.25,South,188,0.0,4.0,69,0.00,,,0.00,meteohub,2013-10-14 17:57:00,
2013-10-14 13:02:00,53.2,43.3,30.24,South,187,0.0,3.0,69,0.00,,,0.00,meteohub,2013-10-14 18:02:00,
2013-10-14 13:07:00,53.2,42.6,30.23,SE,146,0.0,3.0,67,0.00,,,0.00,meteohub,2013-10-14 18:07:00,
2013-10-14 13:12:00,53.2,42.3,30.23,SE,146,3.0,10.0,66,0.00,,,0.00,meteohub,2013-10-14 18:12:00,
2013-10-14 13:17:00,53.4,42.3,30.22,SE,145,0.0,10.0,66,0.00,,,0.00,meteohub,2013-10-14 18:17:00,
2013-10-14 13:22:00,53.4,42.3,30.22,SE,145,0.0,3.0,66,0.00,,,0.00,meteohub,2013-10-14 18:22:00,
2013-10-14 13:27:00,53.6,42.1,30.21,SE,146,0.0,3.0,65,0.00,,,0.00,meteohub,2013-10-14 18:27:00,
2013-10-14 13:32:00,53.6,41.7,30.21,SE,146,0.0,4.0,64,0.00,,,0.00,meteohub,2013-10-14 18:32:00,
2013-10-14 13:37:00,53.6,42.1,30.21,SE,146,0.0,4.0,65,0.00,,,0.00,meteohub,2013-10-14 18:37:00,
2013-10-14 13:42:00,53.8,42.3,30.20,SE,145,0.0,3.0,65,0.00,,,0.00,meteohub,2013-10-14 18:42:00,
2013-10-14 13:47:00,53.8,42.3,30.19,SW,215,0.0,1.0,65,0.00,,,0.00,meteohub,2013-10-14 18:47:00,
2013-10-14 13:52:00,53.8,41.9,30.19,SSW,199,0.0,3.0,64,0.00,,,0.00,meteohub,2013-10-14 18:52:00,
2013-10-14 13:57:00,53.8,42.3,30.19,South,173,0.0,3.0,65,0.00,,,0.00,meteohub,2013-10-14 18:57:00,
2013-10-14 14:02:00,53.8,42.3,30.19,South,172,0.0,3.0,65,0.00,,,0.00,meteohub,2013-10-14 19:02:00,
2013-10-14 14:07:00,53.8,42.3,30.18,SW,214,0.0,2.0,65,0.00,,,0.00,meteohub,2013-10-14 19:07:00,
2013-10-14 14:12:00,53.8,42.6,30.18,SSW,213,0.0,2.0,66,0.00,,,0.00,meteohub,2013-10-14 19:12:00,
2013-10-14 14:17:00,53.8,42.6,30.18,SSE,164,0.0,3.0,66,0.00,,,0.00,meteohub,2013-10-14 19:17:00,
2013-10-14 14:22:00,53.8,42.6,30.18,South,188,0.0,3.0,66,0.00,,,0.00,meteohub,2013-10-14 19:22:00,
2013-10-14 14:27:00,53.8,42.3,30.17,SSW,192,0.0,3.0,65,0.00,,,0.00,meteohub,2013-10-14 19:27:00,
2013-10-14 14:32:00,53.8,41.9,30.17,SSE,153,2.0,2.0,64,0.00,,,0.00,meteohub,2013-10-14 19:32:00,
2013-10-14 14:37:00,53.8,41.5,30.17,West,272,4.0,11.0,63,0.00,,,0.00,meteohub,2013-10-14 19:37:00,
2013-10-14 14:42:00,53.8,40.6,30.16,SSW,194,2.0,11.0,61,0.00,,,0.00,meteohub,2013-10-14 19:42:00,
2013-10-14 14:47:00,53.8,40.3,30.16,South,172,3.0,11.0,60,0.00,,,0.00,meteohub,2013-10-14 19:47:00,
2013-10-14 14:52:00,53.8,40.3,30.16,SSE,159,0.0,8.0,60,0.00,,,0.00,meteohub,2013-10-14 19:52:00,
2013-10-14 14:57:00,53.8,40.3,30.16,WSW,242,0.0,8.0,60,0.00,,,0.00,meteohub,2013-10-14 19:57:00,
2013-10-14 15:02:00,53.8,40.3,30.15,WSW,238,0.0,8.0,60,0.00,,,0.00,meteohub,2013-10-14 20:02:00,
2013-10-14 15:07:00,54.0,40.5,30.15,South,173,0.0,6.0,60,0.00,,,0.00,meteohub,2013-10-14 20:07:00,
2013-10-14 15:12:00,53.8,40.3,30.15,SSE,157,2.0,6.0,60,0.00,,,0.00,meteohub,2013-10-14 20:12:00,
2013-10-14 15:17:00,53.8,40.3,30.14,SSE,160,0.0,6.0,60,0.00,,,0.00,meteohub,2013-10-14 20:17:00,
2013-10-14 15:22:00,53.8,40.3,30.14,SSE,164,0.0,6.0,60,0.00,,,0.00,meteohub,2013-10-14 20:22:00,
2013-10-14 15:27:00,53.8,40.6,30.14,SSE,165,0.0,5.0,61,0.00,,,0.00,meteohub,2013-10-14 20:27:00,
2013-10-14 15:32:00,53.8,41.0,30.14,South,175,0.0,5.0,62,0.00,,,0.00,meteohub,2013-10-14 20:32:00,
2013-10-14 15:37:00,53.8,41.0,30.15,West,267,1.0,5.0,62,0.00,,,0.00,meteohub,2013-10-14 20:37:00,
2013-10-14 15:42:00,53.8,41.5,30.16,SSE,162,0.0,4.0,63,0.00,,,0.00,meteohub,2013-10-14 20:42:00,
2013-10-14 15:47:00,53.8,41.5,30.17,SSE,161,0.0,4.0,63,0.00,,,0.00,meteohub,2013-10-14 20:47:00,
2013-10-14 15:52:00,53.6,41.4,30.16,SSE,161,0.0,4.0,63,0.00,,,0.00,meteohub,2013-10-14 20:52:00,
2013-10-14 15:57:00,53.4,41.2,30.15,SSE,161,0.0,3.0,63,0.00,,,0.00,meteohub,2013-10-14 20:57:00,
2013-10-14 16:02:00,53.4,41.2,30.14,SSE,161,0.0,3.0,63,0.00,,,0.00,meteohub,2013-10-14 21:02:00,
2013-10-14 16:04:00,53.4,41.2,30.13,SSE,161,1.0,3.0,63,0.00,,,0.00,meteohub,2013-10-14 21:04:00,
2013-10-14 16:09:00,53.2,41.0,30.13,South,191,0.0,1.0,63,0.00,,,0.00,meteohub,2013-10-14 21:09:00,
2013-10-14 16:14:00,53.2,41.0,30.12,WNW,288,1.0,4.0,63,0.00,,,0.00,meteohub,2013-10-14 21:14:00,
2013-10-14 16:19:00,53.2,40.6,30.12,WSW,251,0.0,4.0,62,0.00,,,0.00,meteohub,2013-10-14 21:19:00,
2013-10-14 16:24:00,53.2,41.0,30.13,South,169,2.0,4.0,63,0.00,,,0.00,meteohub,2013-10-14 21:24:00,
2013-10-14 16:29:00,53.2,41.0,30.12,SSW,206,0.0,3.0,63,0.00,,,0.00,meteohub,2013-10-14 21:29:00,
2013-10-14 16:34:00,53.2,41.0,30.12,SSW,192,1.0,5.0,63,0.00,,,0.00,meteohub,2013-10-14 21:34:00,
2013-10-14 16:39:00,53.2,41.0,30.12,South,191,0.0,5.0,63,0.00,,,0.00,meteohub,2013-10-14 21:39:00,
2013-10-14 16:44:00,53.2,41.0,30.11,South,169,0.0,5.0,63,0.00,,,0.00,meteohub,2013-10-14 21:44:00,
2013-10-14 16:49:00,53.1,41.2,30.11,WNW,294,0.0,5.0,64,0.00,,,0.00,meteohub,2013-10-14 21:49:00,
2013-10-14 16:54:00,53.1,41.2,30.11,SSE,150,0.0,4.0,64,0.00,,,0.00,meteohub,2013-10-14 21:54:00,
2013-10-14 16:59:00,53.1,41.2,30.10,SSE,151,0.0,3.0,64,0.00,,,0.00,meteohub,2013-10-14 21:59:00,
2013-10-14 17:05:00,53.1,41.2,30.10,WSW,242,0.0,4.0,64,0.00,,,0.00,meteohub,2013-10-14 22:05:00,
2013-10-14 17:10:00,53.1,41.2,30.10,SW,228,0.0,4.0,64,0.00,,,0.00,meteohub,2013-10-14 22:10:00,
2013-10-14 17:15:00,53.1,41.2,30.10,SW,236,0.0,4.0,64,0.00,,,0.00,meteohub,2013-10-14 22:15:00,
2013-10-14 17:20:00,53.1,41.2,30.10,SSE,147,0.0,6.0,64,0.00,,,0.00,meteohub,2013-10-14 22:20:00,
2013-10-14 17:25:00,53.1,41.2,30.10,South,169,5.0,6.0,64,0.00,,,0.00,meteohub,2013-10-14 22:25:00,
2013-10-14 17:30:00,53.1,41.2,30.10,West,268,1.0,6.0,64,0.00,,,0.00,meteohub,2013-10-14 22:30:00,
2013-10-14 17:35:00,53.2,41.0,30.09,SSE,167,0.0,6.0,63,0.00,,,0.00,meteohub,2013-10-14 22:35:00,
2013-10-14 17:40:00,53.2,41.0,30.09,South,178,0.0,9.0,63,0.00,,,0.00,meteohub,2013-10-14 22:40:00,
2013-10-14 17:45:00,53.2,41.4,30.09,South,185,1.0,9.0,64,0.00,,,0.00,meteohub,2013-10-14 22:45:00,
2013-10-14 17:50:00,53.2,41.0,30.09,SW,227,0.0,6.0,63,0.00,,,0.00,meteohub,2013-10-14 22:50:00,
2013-10-14 17:55:00,53.2,41.4,30.09,West,265,0.0,6.0,64,0.00,,,0.00,meteohub,2013-10-14 22:55:00,
2013-10-14 18:00:00,53.2,41.4,30.09,West,263,0.0,6.0,64,0.00,,,0.00,meteohub,2013-10-14 23:00:00,
2013-10-14 18:06:00,53.2,41.4,30.10,SSW,205,0.0,3.0,64,0.00,,,0.00,meteohub,2013-10-14 23:06:00,
2013-10-14 18:11:00,53.2,41.4,30.10,SSW,209,1.0,2.0,64,0.00,,,0.00,meteohub,2013-10-14 23:11:00,
2013-10-14 18:16:00,53.2,41.4,30.10,SSW,209,0.0,2.0,64,0.00,,,0.00,meteohub,2013-10-14 23:16:00,
2013-10-14 18:21:00,53.2,41.7,30.09,SSW,209,0.0,2.0,65,0.00,,,0.00,meteohub,2013-10-14 23:21:00,
2013-10-14 18:26:00,53.2,41.7,30.10,SSW,204,0.0,3.0,65,0.00,,,0.00,meteohub,2013-10-14 23:26:00,
2013-10-14 18:31:00,53.2,42.3,30.10,SSW,205,0.0,3.0,66,0.00,,,0.00,meteohub,2013-10-14 23:31:00,
2013-10-14 18:36:00,53.2,42.6,30.10,SSW,205,0.0,3.0,67,0.00,,,0.00,meteohub,2013-10-14 23:36:00,
2013-10-14 18:41:00,53.2,43.0,30.09,SSW,205,0.0,1.0,68,0.01,,,0.01,meteohub,2013-10-14 23:41:00,
2013-10-14 18:46:00,53.1,43.2,30.09,SSW,203,0.0,1.0,69,0.01,,,0.01,meteohub,2013-10-14 23:46:00,
2013-10-14 18:51:00,52.9,43.3,30.09,SSW,202,0.0,2.0,70,0.01,,,0.01,meteohub,2013-10-14 23:51:00,
2013-10-14 18:56:00,52.7,43.5,30.08,SSW,202,0.0,2.0,71,0.01,,,0.01,meteohub,2013-10-14 23:56:00,
2013-10-14 19:02:00,52.5,43.3,30.08,SSW,202,0.0,1.0,71,0.01,,,0.01,meteohub,2013-10-15 00:02:00,
2013-10-14 19:07:00,52.3,43.5,30.07,SSW,202,0.0,1.0,72,0.01,,,0.00,meteohub,2013-10-15 00:07:00,
2013-10-14 19:12:00,52.2,43.7,30.06,West,263,0.0,1.0,73,0.01,,,0.00,meteohub,2013-10-15 00:12:00,
2013-10-14 19:17:00,51.8,43.7,30.07,West,260,1.0,3.0,74,0.01,,,0.00,meteohub,2013-10-15 00:17:00,
2013-10-14 19:22:00,51.6,43.5,30.06,West,261,0.0,3.0,74,0.01,,,0.00,meteohub,2013-10-15 00:22:00,
2013-10-14 19:27:00,51.4,43.7,30.06,WSW,250,0.0,3.0,75,0.01,,,0.00,meteohub,2013-10-15 00:27:00,
2013-10-14 19:32:00,51.3,43.5,30.04,South,179,0.0,3.0,75,0.01,,,0.00,meteohub,2013-10-15 00:32:00,
2013-10-14 19:37:00,51.3,43.5,30.05,South,179,0.0,4.0,75,0.01,,,0.00,meteohub,2013-10-15 00:37:00,
2013-10-14 19:42:00,51.1,43.7,30.04,South,178,0.0,4.0,76,0.00,,,0.00,meteohub,2013-10-15 00:42:00,
2013-10-14 19:47:00,51.1,43.7,30.04,SSE,167,1.0,4.0,76,0.00,,,0.00,meteohub,2013-10-15 00:47:00,
2013-10-14 19:52:00,51.1,43.7,30.04,SW,236,1.0,5.0,76,0.00,,,0.00,meteohub,2013-10-15 00:52:00,
2013-10-14 19:57:00,51.1,43.7,30.04,SSW,192,0.0,5.0,76,0.00,,,0.00,meteohub,2013-10-15 00:57:00,
2013-10-14 20:02:00,51.1,44.1,30.04,South,180,0.0,5.0,77,0.00,,,0.00,meteohub,2013-10-15 01:02:00,
2013-10-14 20:07:00,51.3,44.2,30.04,South,176,0.0,5.0,77,0.00,,,0.00,meteohub,2013-10-15 01:07:00,
2013-10-14 20:12:00,51.3,44.2,30.02,South,178,0.0,5.0,77,0.00,,,0.00,meteohub,2013-10-15 01:12:00,
2013-10-14 20:17:00,51.3,44.2,30.02,SW,226,2.0,5.0,77,0.00,,,0.00,meteohub,2013-10-15 01:17:00,
2013-10-14 20:22:00,51.3,44.6,30.00,SW,219,0.0,5.0,78,0.00,,,0.00,meteohub,2013-10-15 01:22:00,
2013-10-14 20:27:00,51.3,44.6,29.99,SW,217,0.0,5.0,78,0.01,,,0.01,meteohub,2013-10-15 01:27:00,
2013-10-14 20:32:00,51.1,44.8,29.99,SSW,202,0.0,7.0,79,0.01,,,0.01,meteohub,2013-10-15 01:32:00,
2013-10-14 20:37:00,51.1,44.8,29.99,SSE,164,1.0,7.0,79,0.01,,,0.01,meteohub,2013-10-15 01:37:00,
2013-10-14 20:42:00,50.9,45.0,29.99,SSE,154,1.0,4.0,80,0.01,,,0.01,meteohub,2013-10-15 01:42:00,
2013-10-14 20:47:00,50.7,44.8,29.99,SSW,193,0.0,9.0,80,0.01,,,0.01,meteohub,2013-10-15 01:47:00,
2013-10-14 20:52:00,50.7,44.8,29.99,South,190,0.0,9.0,80,0.01,,,0.01,meteohub,2013-10-15 01:52:00,
2013-10-14 20:57:00,50.7,44.8,29.98,SSW,200,0.0,9.0,80,0.01,,,0.01,meteohub,2013-10-15 01:57:00,
2013-10-14 21:02:00,50.9,45.0,29.99,South,178,0.0,6.0,80,0.01,,,0.01,meteohub,2013-10-15 02:02:00,
2013-10-14 21:07:00,51.1,45.1,29.98,South,176,0.0,6.0,80,0.01,,,0.01,meteohub,2013-10-15 02:07:00,
2013-10-14 21:12:00,51.1,45.1,29.98,SSW,203,4.0,4.0,80,0.01,,,0.01,meteohub,2013-10-15 02:12:00,
2013-10-14 21:17:00,51.3,45.3,29.96,SSW,202,1.0,4.0,80,0.01,,,0.01,meteohub,2013-10-15 02:17:00,
2013-10-14 21:22:00,51.3,45.0,29.96,SE,146,2.0,5.0,79,0.00,,,0.01,meteohub,2013-10-15 02:22:00,
2013-10-14 21:27:00,51.4,45.1,29.96,SW,234,0.0,7.0,79,0.00,,,0.01,meteohub,2013-10-15 02:27:00,
2013-10-14 21:32:00,51.8,45.1,29.96,South,178,0.0,7.0,78,0.00,,,0.01,meteohub,2013-10-15 02:32:00,
2013-10-14 21:37:00,52.2,45.5,29.96,South,173,1.0,7.0,78,0.00,,,0.01,meteohub,2013-10-15 02:37:00,
2013-10-14 21:42:00,52.3,45.3,29.96,SSW,195,0.0,9.0,77,0.00,,,0.01,meteohub,2013-10-15 02:42:00,
2013-10-14 21:47:00,52.7,45.3,29.96,South,183,0.0,9.0,76,0.00,,,0.01,meteohub,2013-10-15 02:47:00,
2013-10-14 21:52:00,52.9,45.5,29.96,West,273,1.0,9.0,76,0.00,,,0.01,meteohub,2013-10-15 02:52:00,
2013-10-14 21:57:00,52.9,45.9,29.97,South,173,0.0,5.0,77,0.00,,,0.01,meteohub,2013-10-15 02:57:00,
2013-10-14 22:02:00,52.9,45.9,29.97,South,173,1.0,5.0,77,0.00,,,0.01,meteohub,2013-10-15 03:02:00,
2013-10-14 22:07:00,52.9,46.2,29.97,South,169,0.0,5.0,78,0.00,,,0.01,meteohub,2013-10-15 03:07:00,
2013-10-14 22:12:00,52.5,45.9,29.97,SSE,148,0.0,4.0,78,0.01,,,0.02,meteohub,2013-10-15 03:12:00,
2013-10-14 22:17:00,52.5,46.2,29.98,ESE,106,0.0,8.0,79,0.01,,,0.02,meteohub,2013-10-15 03:17:00,
2013-10-14 22:22:00,52.5,46.6,30.01,ESE,105,0.0,8.0,80,0.01,,,0.02,meteohub,2013-10-15 03:22:00,
2013-10-14 22:27:00,52.3,46.4,30.02,ESE,105,0.0,2.0,80,0.02,,,0.03,meteohub,2013-10-15 03:27:00,
2013-10-14 22:32:00,52.3,46.4,30.01,ESE,105,0.0,2.0,80,0.03,,,0.04,meteohub,2013-10-15 03:32:00,
2013-10-14 22:37:00,52.2,46.6,30.00,ESE,105,0.0,1.0,81,0.08,,,0.09,meteohub,2013-10-15 03:37:00,
2013-10-14 22:42:00,52.2,46.6,29.99,ESE,105,0.0,1.0,81,0.11,,,0.12,meteohub,2013-10-15 03:42:00,
2013-10-14 22:47:00,52.0,46.6,29.98,East,99,0.0,2.0,82,0.14,,,0.15,meteohub,2013-10-15 03:47:00,
2013-10-14 22:52:00,51.8,46.4,29.99,East,99,0.0,2.0,82,0.17,,,0.18,meteohub,2013-10-15 03:52:00,
2013-10-14 22:57:00,51.6,46.2,29.99,East,99,0.0,2.0,82,0.18,,,0.19,meteohub,2013-10-15 03:57:00,
2013-10-14 23:01:00,51.4,46.4,29.99,East,99,0.0,0.0,83,0.20,,,0.21,meteohub,2013-10-15 04:01:00,
2013-10-14 23:02:00,51.4,46.4,29.99,East,99,0.0,0.0,83,0.20,,,0.21,meteohub,2013-10-15 04:02:00,
2013-10-14 23:03:00,51.4,46.4,29.99,East,99,0.0,0.0,83,0.20,,,0.21,meteohub,2013-10-15 04:03:00,
2013-10-14 23:05:00,51.4,46.4,29.99,East,99,0.0,0.0,83,0.21,,,0.22,meteohub,2013-10-15 04:05:00,
2013-10-14 23:07:00,51.3,46.2,29.99,East,99,0.0,0.0,83,0.21,,,0.22,meteohub,2013-10-15 04:07:00,
2013-10-14 23:12:00,51.3,46.2,29.97,East,99,0.0,1.0,83,0.23,,,0.25,meteohub,2013-10-15 04:12:00,
2013-10-14 23:17:00,51.1,46.4,29.98,East,99,0.0,1.0,84,0.25,,,0.27,meteohub,2013-10-15 04:17:00,
2013-10-14 23:22:00,51.1,46.4,29.97,East,99,0.0,1.0,84,0.26,,,0.28,meteohub,2013-10-15 04:22:00,
2013-10-14 23:27:00,50.9,46.2,29.96,East,99,0.0,0.0,84,0.28,,,0.31,meteohub,2013-10-15 04:27:00,
2013-10-14 23:32:00,50.9,46.6,29.96,East,99,0.0,0.0,85,0.25,,,0.32,meteohub,2013-10-15 04:32:00,
2013-10-14 23:37:00,50.7,46.4,29.97,East,99,0.0,0.0,85,0.26,,,0.36,meteohub,2013-10-15 04:37:00,
2013-10-14 23:43:00,50.7,46.4,29.97,East,99,0.0,0.0,85,0.28,,,0.41,meteohub,2013-10-15 04:43:00,
2013-10-14 23:48:00,50.5,46.6,29.97,East,99,0.0,0.0,86,0.27,,,0.43,meteohub,2013-10-15 04:48:00,
2013-10-14 23:53:00,50.5,46.6,29.95,SSE,158,0.0,0.0,86,0.29,,,0.47,meteohub,2013-10-15 04:53:00,
2013-10-14 23:58:00,50.5,46.6,29.96,West,271,0.0,3.0,86,0.29,,,0.49,meteohub,2013-10-15 04:58:00,